createdAt,value
2018-11-29T00:00:14.251Z,26.83
2018-11-29T00:05:18.803Z,26.83
2018-11-29T00:10:23.437Z,26.83
2018-11-29T00:15:46.739Z,28.47
2018-11-29T00:20:51.302Z,26.20
2018-11-29T00:25:55.856Z,26.73
2018-11-29T00:31:00.420Z,25.13
2018-11-29T00:36:04.998Z,24.10
2018-11-29T00:41:09.543Z,24.60
2018-11-29T00:46:14.142Z,23.87
2018-11-29T00:51:18.674Z,21.93
2018-11-29T00:56:23.247Z,21.53
2018-11-29T01:01:27.883Z,22.47
2018-11-29T01:06:32.413Z,24.17
2018-11-29T01:11:36.959Z,23.63
2018-11-29T01:16:41.584Z,23.13
2018-11-29T01:21:46.201Z,25.57
2018-11-29T01:26:50.744Z,24.73
2018-11-29T01:31:55.311Z,24.73
2018-11-29T01:37:18.910Z,24.17
2018-11-29T01:42:23.495Z,25.13
2018-11-29T01:47:28.052Z,27.23
2018-11-29T01:52:32.598Z,23.20
2018-11-29T01:57:37.306Z,23.07
2018-11-29T02:02:41.948Z,25.57
2018-11-29T02:07:46.497Z,22.47
2018-11-29T02:12:51.057Z,22.60
2018-11-29T02:17:55.588Z,25.50
2018-11-29T02:23:00.155Z,24.30
2018-11-29T02:28:04.817Z,24.37
2018-11-29T02:33:09.359Z,25.47
2018-11-29T02:38:13.973Z,29.13
2018-11-29T02:43:18.549Z,26.90
2018-11-29T02:48:23.155Z,27.10
2018-11-29T02:53:27.732Z,30.00
2018-11-29T02:58:32.303Z,28.57
2018-11-29T03:03:36.868Z,26.20
2018-11-29T03:09:00.400Z,25.23
2018-11-29T03:14:05.032Z,26.47
2018-11-29T03:19:09.606Z,25.67
2018-11-29T03:24:14.129Z,28.40
2018-11-29T03:29:18.712Z,23.03
2018-11-29T03:34:23.265Z,28.50
2018-11-29T03:39:27.822Z,23.42
2018-11-29T03:44:32.417Z,25.67
2018-11-29T03:49:36.982Z,24.43
2018-11-29T03:55:00.522Z,27.67
2018-11-29T04:00:05.119Z,28.83
2018-11-29T04:05:28.691Z,27.83
2018-11-29T04:10:33.269Z,28.47
2018-11-29T04:15:37.849Z,28.27
2018-11-29T04:20:42.441Z,30.50
2018-11-29T04:25:46.986Z,28.47
2018-11-29T04:30:51.552Z,31.07
2018-11-29T04:35:56.102Z,27.83
2018-11-29T04:41:00.655Z,27.80
2018-11-29T04:46:43.798Z,25.87
2018-11-29T04:51:48.386Z,29.57
2018-11-29T04:56:52.986Z,30.00
2018-11-29T05:01:57.486Z,31.23
2018-11-29T05:07:02.093Z,29.57
2018-11-29T05:12:06.640Z,33.07
2018-11-29T05:17:11.209Z,30.35
2018-11-29T05:22:34.712Z,30.23
2018-11-29T05:27:39.283Z,32.83
2018-11-29T05:32:43.818Z,35.23
2018-11-29T05:37:48.398Z,34.87
2018-11-29T05:42:53.043Z,31.47
2018-11-29T05:47:57.599Z,30.37
2018-11-29T05:53:02.094Z,30.37
2018-11-29T05:58:06.920Z,29.43
2018-11-29T06:03:11.514Z,33.03
2018-11-29T06:08:16.085Z,33.80
2018-11-29T06:13:31.831Z,32.13
2018-11-29T06:18:36.461Z,34.60
2018-11-29T06:23:41.028Z,32.10
2018-11-29T06:28:45.583Z,34.33
2018-11-29T06:33:50.239Z,33.70
2018-11-29T06:38:54.856Z,39.20
2018-11-29T06:43:59.495Z,33.77
2018-11-29T06:49:04.038Z,38.53
2018-11-29T06:54:08.611Z,33.90
2018-11-29T06:59:13.165Z,37.57
2018-11-29T07:04:17.744Z,37.00
2018-11-29T07:09:22.291Z,33.47
2018-11-29T07:14:26.841Z,37.73
2018-11-29T07:19:31.399Z,33.47
2018-11-29T07:24:35.961Z,35.70
2018-11-29T07:29:40.538Z,37.07
2018-11-29T07:34:45.150Z,36.73
2018-11-29T07:39:49.718Z,36.37
2018-11-29T07:44:54.331Z,34.43
2018-11-29T07:50:00.022Z,40.10
2018-11-29T07:55:03.493Z,36.80
2018-11-29T08:00:10.359Z,33.93
2018-11-29T08:05:15.934Z,36.77
2018-11-29T08:10:20.915Z,46.40
2018-11-29T08:15:44.459Z,31.40
2018-11-29T08:20:49.061Z,36.03
2018-11-29T08:25:53.630Z,43.50
2018-11-29T08:30:58.213Z,33.33
2018-11-29T08:36:02.844Z,33.27
2018-11-29T08:41:07.552Z,32.70
2018-11-29T08:46:12.093Z,37.17
2018-11-29T08:51:16.633Z,36.67
2018-11-29T08:56:21.239Z,32.63
2018-11-29T09:01:25.811Z,37.80
2018-11-29T09:06:30.417Z,31.87
2018-11-29T09:17:04.472Z,34.50
2018-11-29T09:22:09.006Z,34.83
2018-11-29T09:27:14.907Z,31.20
2018-11-29T09:32:22.784Z,37.60
2018-11-29T09:37:46.336Z,33.20
2018-11-29T09:42:51.573Z,34.27
2018-11-29T09:48:01.447Z,30.03
2018-11-29T09:53:06.772Z,30.72
2018-11-29T09:58:30.694Z,33.07
2018-11-29T10:03:35.281Z,31.47
2018-11-29T10:09:02.503Z,28.93
2018-11-29T10:14:07.872Z,31.03
2018-11-29T10:19:12.725Z,33.50
2018-11-29T10:24:17.352Z,30.73
2018-11-29T10:29:40.922Z,30.17
2018-11-29T10:34:45.494Z,29.70
2018-11-29T10:40:09.017Z,33.67
2018-11-29T10:45:18.086Z,33.13
2018-11-29T10:50:22.658Z,28.43
2018-11-29T10:55:27.221Z,31.77
2018-11-29T11:00:50.570Z,33.27
2018-11-29T11:05:55.178Z,29.47
2018-11-29T11:11:06.559Z,32.13
2018-11-29T11:16:11.130Z,29.73
2018-11-29T11:21:15.697Z,31.77
2018-11-29T11:26:20.232Z,29.43
2018-11-29T11:31:30.911Z,28.67
2018-11-29T11:36:29.370Z,31.17
2018-11-29T11:41:33.961Z,27.47
2018-11-29T11:46:38.547Z,25.93
2018-11-29T11:51:43.115Z,29.00
2018-11-29T11:56:47.657Z,31.03
2018-11-29T12:01:52.236Z,27.80
2018-11-29T12:06:56.780Z,31.20
2018-11-29T12:12:01.360Z,32.33
2018-11-29T12:17:05.989Z,30.10
2018-11-29T12:22:10.531Z,29.93
2018-11-29T12:27:15.086Z,31.33
2018-11-29T12:32:19.637Z,32.77
2018-11-29T12:37:24.260Z,33.67
2018-11-29T12:42:28.849Z,33.37
2018-11-29T12:47:33.384Z,33.07
2018-11-29T12:52:37.941Z,31.23
2018-11-29T12:57:42.525Z,33.20
2018-11-29T13:08:11.674Z,33.93
2018-11-29T13:13:34.929Z,30.73
2018-11-29T13:18:58.498Z,31.87
2018-11-29T13:24:03.219Z,34.90
2018-11-29T13:29:07.635Z,38.83
2018-11-29T13:39:41.722Z,32.53
2018-11-29T13:44:46.360Z,31.47
2018-11-29T13:49:50.892Z,33.47
2018-11-29T13:54:55.456Z,29.57
2018-11-29T14:00:00.070Z,29.47
2018-11-29T14:05:04.584Z,30.30
2018-11-29T14:10:28.128Z,33.83
2018-11-29T14:15:32.705Z,26.63
2018-11-29T14:20:37.392Z,28.73
2018-11-29T14:25:41.900Z,30.10
2018-11-29T14:30:46.459Z,26.13
2018-11-29T14:36:09.957Z,30.40
2018-11-29T14:41:14.725Z,29.97
2018-11-29T14:46:19.241Z,27.90
2018-11-29T14:51:23.778Z,29.57
2018-11-29T14:56:28.353Z,27.03
2018-11-29T15:01:32.992Z,26.27
2018-11-29T15:06:37.620Z,27.77
2018-11-29T15:11:42.232Z,24.43
2018-11-29T15:16:46.989Z,25.97
2018-11-29T15:21:51.422Z,25.83
2018-11-29T15:26:56.127Z,22.50
2018-11-29T15:32:00.638Z,21.20
2018-11-29T15:37:05.204Z,23.37
2018-11-29T15:42:09.811Z,25.23
2018-11-29T15:47:33.112Z,18.43
2018-11-29T15:52:37.747Z,19.37
2018-11-29T15:57:42.288Z,19.17
2018-11-29T16:02:48.221Z,17.20
2018-11-29T16:07:52.776Z,15.50
2018-11-29T16:13:16.474Z,16.53
2018-11-29T16:18:20.969Z,16.70
2018-11-29T16:23:25.661Z,16.67
2018-11-29T16:28:30.169Z,15.23
2018-11-29T16:33:36.543Z,16.40
2018-11-29T16:38:41.141Z,19.25
2018-11-29T16:43:45.800Z,14.73
2018-11-29T16:48:50.367Z,17.63
2018-11-29T16:53:54.906Z,13.50
2018-11-29T17:04:10.465Z,18.17
2018-11-29T17:09:15.067Z,14.63
2018-11-29T17:14:19.929Z,15.43
2018-11-29T17:19:25.517Z,18.23
2018-11-29T17:24:30.013Z,16.07
2018-11-29T17:29:34.564Z,16.62
2018-11-29T17:34:58.503Z,16.77
2018-11-29T17:40:02.977Z,17.90
2018-11-29T17:45:27.793Z,18.97
2018-11-29T17:56:15.403Z,19.37
2018-11-29T18:01:39.072Z,21.93
2018-11-29T18:06:43.813Z,22.67
2018-11-29T18:11:48.474Z,20.10
2018-11-29T18:17:11.975Z,19.40
2018-11-29T18:22:16.582Z,22.17
2018-11-29T18:27:21.133Z,19.93
2018-11-29T18:32:25.697Z,19.03
2018-11-29T18:37:50.125Z,20.63
2018-11-29T18:43:12.888Z,21.27
2018-11-29T18:48:17.492Z,21.37
2018-11-29T18:53:22.049Z,20.13
2018-11-29T18:58:45.303Z,21.40
2018-11-29T19:03:49.836Z,22.63
2018-11-29T19:08:54.441Z,21.07
2018-11-29T19:13:59.025Z,23.77
2018-11-29T19:19:03.554Z,20.43
2018-11-29T19:24:08.128Z,21.23
2018-11-29T19:29:12.626Z,19.27
2018-11-29T19:34:17.135Z,20.73
2018-11-29T19:39:21.668Z,23.73
2018-11-29T19:44:26.279Z,20.52
2018-11-29T19:54:59.830Z,18.07
2018-11-29T20:00:05.317Z,19.90
2018-11-29T20:05:11.292Z,20.00
2018-11-29T20:10:19.591Z,16.47
2018-11-29T20:15:24.136Z,18.13
2018-11-29T20:20:28.709Z,15.87
2018-11-29T20:25:33.387Z,17.13
2018-11-29T20:30:37.944Z,16.97
2018-11-29T20:35:42.634Z,15.90
2018-11-29T20:41:06.710Z,16.80
2018-11-29T20:46:18.321Z,15.93
2018-11-29T20:51:22.929Z,15.57
2018-11-29T20:56:27.491Z,14.67
2018-11-29T21:01:51.024Z,15.83
2018-11-29T21:07:14.581Z,15.93
2018-11-29T21:12:19.149Z,18.73
2018-11-29T21:17:42.694Z,16.53
2018-11-29T21:22:48.444Z,14.60
2018-11-29T21:28:12.069Z,12.77
2018-11-29T21:33:16.622Z,14.90
2018-11-29T21:38:22.114Z,13.47
2018-11-29T21:43:26.707Z,15.67
2018-11-29T21:48:31.318Z,12.90
2018-11-29T21:53:35.818Z,14.17
2018-11-29T21:58:40.333Z,13.83
2018-11-29T22:03:44.879Z,12.70
2018-11-29T22:08:49.447Z,15.47
2018-11-29T22:13:54.019Z,13.53
2018-11-29T22:18:58.579Z,13.53
2018-11-29T22:24:03.139Z,15.17
2018-11-29T22:29:07.722Z,13.83
2018-11-29T22:34:12.293Z,14.13
2018-11-29T22:39:16.827Z,14.23
2018-11-29T22:44:21.390Z,14.10
2018-11-29T22:49:25.971Z,13.83
2018-11-29T22:54:30.587Z,14.20
2018-11-29T22:59:35.191Z,15.23
2018-11-29T23:04:39.734Z,13.47
2018-11-29T23:09:44.287Z,15.43
2018-11-29T23:14:48.796Z,15.60
2018-11-29T23:19:53.385Z,16.97
2018-11-29T23:24:57.937Z,17.50
2018-11-29T23:30:21.431Z,16.60
2018-11-29T23:35:26.021Z,17.50
2018-11-29T23:40:30.717Z,16.13
2018-11-29T23:45:35.180Z,15.93
2018-11-29T23:50:58.683Z,20.53
2018-11-29T23:56:03.298Z,16.73
